Time;durP1;ratioP1;P1;durP2;ratioP2;P2;SDS_P1;SDS_P2;PMS_P1;PMS_P2;Temp;Humidity;BMP_temperature;BMP_pressure;BME280_temperature;BME280_humidity;BME280_pressure;Samples;Min_cycle;Max_cycle;Signal;HPM_P1;HPM_P2
2023/08/23 00:02:41;;;;;;;29.70;26.90;;;;;;;19.82;88.35;98873.70;226910;1272;22526;-73
2023/08/23 00:07:43;;;;;;;27.10;24.60;;;;;;;19.83;88.57;98873.55;227008;1272;22527;-74
2023/08/23 00:12:46;;;;;;;26.50;23.90;;;;;;;19.85;88.49;98874.77;226954;1272;26276;-73
2023/08/23 00:17:49;;;;;;;27.30;24.60;;;;;;;19.89;88.85;98874.34;226820;1270;22570;-74
2023/08/23 00:22:51;;;;;;;29.30;26.60;;;;;;;19.91;88.80;98876.61;226837;1257;24313;-74
2023/08/23 00:27:53;;;;;;;30.40;27.30;;;;;;;19.93;88.68;98875.84;226803;1272;22605;-73
2023/08/23 00:33:14;;;;;;;30.10;27.20;;;;;;;19.94;88.72;98870.82;226914;1270;22580;-73
2023/08/23 00:38:17;;;;;;;31.30;28.10;;;;;;;19.94;88.76;98872.92;226922;1270;22522;-73
2023/08/23 00:43:19;;;;;;;30.30;27.50;;;;;;;19.95;88.86;98870.63;226960;1272;22527;-73
2023/08/23 00:48:21;;;;;;;31.20;28.10;;;;;;;19.95;88.83;98864.40;226902;1273;22908;-73
2023/08/23 00:53:25;;;;;;;33.00;29.80;;;;;;;19.97;88.99;98867.38;226988;1272;22522;-72
2023/08/23 00:58:30;;;;;;;33.10;29.80;;;;;;;19.99;89.02;98852.55;226889;1250;22581;-73
2023/08/23 01:03:33;;;;;;;34.40;31.10;;;;;;;19.97;89.03;98852.05;226965;1272;22544;-73
2023/08/23 01:08:45;;;;;;;34.20;31.00;;;;;;;19.96;88.95;98855.39;226948;1272;22537;-73
2023/08/23 01:14:01;;;;;;;34.50;31.10;;;;;;;19.92;88.99;98858.61;226858;1270;22557;-73
2023/08/23 01:19:32;;;;;;;34.70;31.20;;;;;;;19.90;89.16;98848.48;226984;1273;22775;-73
2023/08/23 01:24:35;;;;;;;35.20;31.70;;;;;;;19.89;89.28;98841.89;226953;1272;22647;-75
2023/08/23 01:29:37;;;;;;;36.60;32.90;;;;;;;19.88;89.31;98842.96;226907;1270;24224;-73
2023/08/23 01:34:44;;;;;;;36.50;32.90;;;;;;;19.86;89.44;98838.86;226778;1269;142838;-73
2023/08/23 01:39:46;;;;;;;35.50;32.10;;;;;;;19.85;89.63;98850.36;226861;1269;22540;-73
2023/08/23 01:44:50;;;;;;;35.80;32.00;;;;;;;19.84;89.68;98861.23;226978;1268;22543;-72
2023/08/23 01:49:53;;;;;;;36.40;32.60;;;;;;;19.82;89.63;98842.27;226915;1273;22538;-73
2023/08/23 01:54:57;;;;;;;37.70;33.60;;;;;;;19.80;89.69;98852.38;226903;1269;22560;-72
2023/08/23 01:59:59;;;;;;;37.20;33.40;;;;;;;19.77;89.86;98862.26;226851;1270;24246;-72
2023/08/23 02:05:01;;;;;;;41.10;35.50;;;;;;;19.77;89.90;98867.27;226813;1272;22531;-73
2023/08/23 02:10:03;;;;;;;39.70;35.40;;;;;;;19.75;90.09;98873.59;226922;1267;22604;-73
2023/08/23 02:15:06;;;;;;;40.10;35.70;;;;;;;19.73;90.29;98884.83;226919;1270;22540;-73
2023/08/23 02:20:08;;;;;;;37.30;33.30;;;;;;;19.71;90.32;98885.34;226873;1270;22527;-73
2023/08/23 02:25:10;;;;;;;38.50;34.60;;;;;;;19.69;90.36;98886.53;226892;1273;22543;-72
2023/08/23 02:30:13;;;;;;;39.70;34.80;;;;;;;19.66;90.52;98892.33;226918;1270;22634;-73
2023/08/23 02:35:15;;;;;;;42.30;37.90;;;;;;;19.66;90.53;98892.45;226976;1266;26121;-73
2023/08/23 02:40:18;;;;;;;42.80;38.10;;;;;;;19.68;90.52;98898.42;226942;1273;22524;-73
2023/08/23 02:45:20;;;;;;;42.60;37.00;;;;;;;19.69;90.70;98887.88;226898;1273;24196;-73
2023/08/23 02:50:22;;;;;;;39.00;34.80;;;;;;;19.70;90.91;98879.91;226791;1270;22536;-73
2023/08/23 02:55:24;;;;;;;36.50;32.60;;;;;;;19.70;90.88;98880.81;226953;1269;22833;-73
2023/08/23 03:00:25;;;;;;;37.00;33.20;;;;;;;19.72;90.98;98890.17;226948;1270;22732;-72
2023/08/23 03:05:28;;;;;;;36.40;32.40;;;;;;;19.73;91.12;98884.89;226964;1272;22542;-73
2023/08/23 03:10:30;;;;;;;37.60;33.70;;;;;;;19.74;91.06;98883.92;226918;1270;22538;-73
2023/08/23 03:15:31;;;;;;;35.10;31.30;;;;;;;19.76;91.38;98874.40;226914;1269;22566;-73
2023/08/23 03:20:33;;;;;;;36.00;32.10;;;;;;;19.78;91.33;98880.27;226916;1266;22581;-72
2023/08/23 03:25:36;;;;;;;35.00;31.30;;;;;;;19.79;91.42;98878.21;226872;1266;22589;-72
2023/08/23 03:30:38;;;;;;;36.00;32.20;;;;;;;19.82;91.38;98875.48;226876;1272;22533;-72
2023/08/23 03:35:40;;;;;;;40.70;36.00;;;;;;;19.83;91.20;98881.65;226825;1269;22538;-73
2023/08/23 03:40:42;;;;;;;38.00;34.00;;;;;;;19.84;91.16;98884.09;226789;1270;25880;-73
2023/08/23 03:45:46;;;;;;;40.30;36.10;;;;;;;19.85;91.16;98886.67;226916;1270;22526;-73
2023/08/23 03:50:48;;;;;;;39.20;34.60;;;;;;;19.85;91.10;98884.75;226880;1270;22561;-72
2023/08/23 03:55:52;;;;;;;38.30;34.30;;;;;;;19.86;91.00;98889.65;226875;1266;22554;-73
2023/08/23 04:00:54;;;;;;;35.80;32.00;;;;;;;19.87;91.00;98893.42;226827;1272;22543;-72
2023/08/23 04:05:57;;;;;;;35.10;31.50;;;;;;;19.87;90.92;98895.73;226942;1269;22527;-73
2023/08/23 04:10:58;;;;;;;34.40;30.20;;;;;;;19.86;90.91;98901.23;226980;1272;22534;-73
2023/08/23 04:16:00;;;;;;;34.00;30.30;;;;;;;19.85;90.98;98900.52;226894;1272;25261;-72
2023/08/23 04:21:02;;;;;;;33.10;29.30;;;;;;;19.85;90.87;98900.73;226928;1272;22534;-73
2023/08/23 04:26:04;;;;;;;31.30;28.20;;;;;;;19.85;90.79;98900.61;226891;1272;22550;-72
2023/08/23 04:31:06;;;;;;;31.90;28.50;;;;;;;19.86;90.69;98901.82;226858;1272;23146;-73
2023/08/23 04:36:18;;;;;;;30.90;27.70;;;;;;;19.90;90.82;98908.02;226918;1272;22532;-73
2023/08/23 04:41:20;;;;;;;30.20;27.30;;;;;;;19.92;90.56;98911.02;226893;1272;22555;-73
2023/08/23 04:46:23;;;;;;;28.80;25.80;;;;;;;19.96;90.39;98917.73;226933;1271;22580;-73
2023/08/23 04:51:26;;;;;;;31.00;26.60;;;;;;;20.00;90.42;98919.31;226934;1255;22573;-73
2023/08/23 04:56:28;;;;;;;29.10;26.20;;;;;;;20.05;90.15;98934.23;226900;1272;22650;-73
2023/08/23 05:01:30;;;;;;;29.20;26.20;;;;;;;20.06;90.06;98934.13;226895;1266;22538;-73
2023/08/23 05:06:35;;;;;;;29.40;26.40;;;;;;;20.05;90.07;98934.54;226748;1267;22542;-73
2023/08/23 05:11:37;;;;;;;28.00;25.10;;;;;;;20.04;89.92;98937.48;226720;1266;22522;-73
2023/08/23 05:16:40;;;;;;;28.90;25.40;;;;;;;20.03;89.86;98936.52;226668;1273;22537;-73
2023/08/23 05:21:42;;;;;;;27.80;24.90;;;;;;;20.03;89.87;98944.55;226775;1269;23595;-72
2023/08/23 05:26:43;;;;;;;29.50;26.60;;;;;;;20.03;89.81;98947.83;226659;1272;22537;-72
2023/08/23 05:31:46;;;;;;;28.80;25.80;;;;;;;20.03;89.72;98954.58;226631;1273;26057;-72
2023/08/23 05:36:48;;;;;;;28.00;25.20;;;;;;;20.00;89.64;98959.96;226701;1270;22535;-72
2023/08/23 05:41:50;;;;;;;28.20;25.30;;;;;;;20.01;89.77;98958.65;226784;1273;22529;-72
2023/08/23 05:46:52;;;;;;;28.30;25.30;;;;;;;20.07;89.85;98963.29;226736;1268;22548;-73
2023/08/23 05:51:54;;;;;;;27.50;24.60;;;;;;;20.13;89.65;98975.92;226748;1271;22560;-74
2023/08/23 05:56:59;;;;;;;28.10;24.10;;;;;;;20.17;89.55;98977.02;226682;1262;22547;-73
2023/08/23 06:02:01;;;;;;;27.70;24.80;;;;;;;20.20;89.62;98978.61;226585;1260;22547;-74
2023/08/23 06:07:03;;;;;;;28.90;25.70;;;;;;;20.21;89.31;98978.34;226397;1269;25262;-74
2023/08/23 06:12:06;;;;;;;29.20;26.30;;;;;;;20.23;89.27;98982.54;226326;1254;23031;-75
2023/08/23 06:17:08;;;;;;;28.90;25.90;;;;;;;20.29;89.36;98986.11;226453;1267;22531;-74
2023/08/23 06:22:10;;;;;;;29.80;26.60;;;;;;;20.35;89.19;98984.22;226326;1272;22688;-75
2023/08/23 06:27:12;;;;;;;28.60;25.50;;;;;;;20.39;88.84;98988.98;226370;1270;22580;-75
2023/08/23 06:32:14;;;;;;;27.20;24.40;;;;;;;20.45;88.68;98993.08;226216;1266;22530;-75
2023/08/23 06:37:16;;;;;;;27.30;24.60;;;;;;;20.61;88.54;98997.98;226166;1273;22576;-75
2023/08/23 06:42:18;;;;;;;25.30;22.80;;;;;;;20.82;88.28;98999.34;226201;1269;24231;-78
2023/08/23 06:47:20;;;;;;;26.80;24.20;;;;;;;21.05;87.75;99005.52;226363;1257;22601;-77
2023/08/23 06:52:23;;;;;;;26.50;23.80;;;;;;;21.32;87.49;99005.23;226473;1254;22534;-77
2023/08/23 06:57:28;;;;;;;24.00;21.80;;;;;;;21.59;86.65;99011.33;226382;1270;24242;-77
2023/08/23 07:02:30;;;;;;;27.10;24.20;;;;;;;21.76;86.27;99012.14;226507;1269;22579;-77
2023/08/23 07:07:33;;;;;;;26.70;24.00;;;;;;;22.02;86.11;99014.33;226463;1270;22529;-77
2023/08/23 07:12:35;;;;;;;24.70;22.20;;;;;;;22.21;85.22;99019.19;226437;1254;22545;-77
2023/08/23 07:17:38;;;;;;;23.20;21.00;;;;;;;22.27;84.34;99022.98;226485;1253;22574;-77
2023/08/23 07:22:41;;;;;;;23.30;20.90;;;;;;;22.30;83.89;99024.57;226367;1269;25334;-78
2023/08/23 07:27:43;;;;;;;24.50;22.30;;;;;;;22.48;83.86;99016.52;226275;1266;22542;-78
2023/08/23 07:32:45;;;;;;;22.20;20.20;;;;;;;22.69;83.70;99015.14;226247;1256;25195;-75
2023/08/23 07:37:47;;;;;;;20.80;18.70;;;;;;;22.82;82.97;99021.98;226291;1270;22547;-76
2023/08/23 07:42:49;;;;;;;21.30;19.30;;;;;;;22.87;82.15;99026.46;226261;1266;23655;-76
2023/08/23 07:47:51;;;;;;;24.90;21.30;;;;;;;22.86;81.85;99035.35;226312;1273;22627;-75
2023/08/23 07:52:53;;;;;;;24.30;20.90;;;;;;;22.82;81.98;99045.33;226298;1252;22612;-76
2023/08/23 07:57:55;;;;;;;23.10;20.70;;;;;;;22.79;82.26;99042.66;226399;1266;22527;-75
2023/08/23 08:02:59;;;;;;;22.40;20.30;;;;;;;22.87;82.24;99040.98;226255;1267;22544;-75
2023/08/23 08:08:02;;;;;;;21.80;19.60;;;;;;;23.02;81.70;99049.99;226333;1272;22514;-76
2023/08/23 08:13:11;;;;;;;23.10;20.50;;;;;;;23.18;81.31;99050.77;226307;1272;22527;-75
2023/08/23 08:18:14;;;;;;;23.40;21.00;;;;;;;23.29;81.06;99048.06;226420;1272;22517;-75
2023/08/23 08:23:16;;;;;;;22.90;20.60;;;;;;;23.31;80.57;99050.92;226442;1272;26194;-75
2023/08/23 08:28:18;;;;;;;23.90;21.40;;;;;;;23.46;81.08;99050.93;226374;1267;22531;-76
2023/08/23 08:33:20;;;;;;;22.20;20.00;;;;;;;23.62;80.64;99055.85;226372;1266;23524;-75
2023/08/23 08:38:22;;;;;;;23.50;21.20;;;;;;;23.71;79.93;99057.50;226709;1250;22535;-76
2023/08/23 08:43:25;;;;;;;24.70;22.20;;;;;;;23.88;79.69;99059.27;226523;1267;22575;-76
2023/08/23 08:48:27;;;;;;;22.50;20.30;;;;;;;24.04;79.38;99065.00;226536;1269;22544;-76
2023/08/23 08:53:32;;;;;;;25.20;22.80;;;;;;;24.04;78.59;99054.20;226525;1269;22571;-76
2023/08/23 08:58:34;;;;;;;25.50;23.00;;;;;;;24.26;78.69;99053.53;226548;1267;22599;-76
2023/08/23 09:03:36;;;;;;;26.30;23.90;;;;;;;24.32;78.13;99055.11;226496;1267;22526;-77
2023/08/23 09:08:39;;;;;;;24.30;22.20;;;;;;;24.33;77.63;99050.35;226617;1272;22530;-75
2023/08/23 09:13:41;;;;;;;25.10;22.80;;;;;;;24.48;77.66;99044.83;226562;1269;22537;-75
2023/08/23 09:18:44;;;;;;;22.90;20.90;;;;;;;24.74;76.78;99049.60;226559;1253;22541;-77
2023/08/23 09:23:46;;;;;;;23.10;21.10;;;;;;;24.81;76.20;99059.42;226738;1253;25430;-76
2023/08/23 09:28:48;;;;;;;24.00;21.80;;;;;;;25.02;75.89;99059.07;226368;1273;22580;-76
2023/08/23 09:33:52;;;;;;;24.70;22.30;;;;;;;25.09;75.65;99066.12;226572;1269;22673;-77
2023/08/23 09:39:00;;;;;;;23.70;21.50;;;;;;;25.11;74.63;99069.05;226448;1261;22970;-78
2023/08/23 09:44:04;;;;;;;23.30;21.00;;;;;;;25.16;74.87;99067.41;226381;1259;22538;-78
2023/08/23 09:49:08;;;;;;;22.50;20.40;;;;;;;25.54;74.67;99064.42;226331;1272;22560;-78
2023/08/23 09:54:20;;;;;;;22.90;20.70;;;;;;;25.46;73.94;99065.55;226392;1251;22555;-77
2023/08/23 09:59:46;;;;;;;21.10;19.10;;;;;;;25.41;74.02;99063.73;226381;1259;22717;-76
2023/08/23 10:04:50;;;;;;;20.60;18.70;;;;;;;25.60;73.72;99058.50;226478;1263;24496;-79
2023/08/23 10:09:52;;;;;;;18.70;17.10;;;;;;;25.92;73.78;99057.24;226485;1255;22536;-78
2023/08/23 10:14:57;;;;;;;18.20;16.50;;;;;;;26.22;73.39;99056.98;226523;1256;22517;-78
2023/08/23 10:20:07;;;;;;;19.20;17.30;;;;;;;26.59;72.77;99050.33;226423;1260;23052;-79
2023/08/23 10:25:17;;;;;;;18.10;16.40;;;;;;;26.72;72.13;99050.67;226366;1266;22526;-79
2023/08/23 10:30:28;;;;;;;18.80;17.10;;;;;;;26.78;71.81;99046.88;226589;1272;22525;-79
2023/08/23 10:35:35;;;;;;;16.70;15.20;;;;;;;26.98;72.50;99039.68;226455;1269;22549;-79
2023/08/23 10:40:39;;;;;;;13.40;12.20;;;;;;;27.35;71.25;99031.69;226588;1258;22541;-79
2023/08/23 10:45:49;;;;;;;15.30;14.00;;;;;;;27.71;70.26;99022.70;226477;1251;22548;-79
2023/08/23 10:50:53;;;;;;;11.50;10.50;;;;;;;28.01;69.19;99020.02;226595;1253;22764;-79
2023/08/23 10:55:55;;;;;;;11.90;10.80;;;;;;;28.07;68.44;99016.30;226402;1256;22538;-78
2023/08/23 11:00:58;;;;;;;11.20;10.10;;;;;;;28.13;68.17;99014.06;226626;1263;24196;-77
2023/08/23 11:06:00;;;;;;;9.10;8.30;;;;;;;28.21;66.76;99006.94;226510;1257;23030;-74
2023/08/23 11:11:05;;;;;;;9.90;8.70;;;;;;;28.25;65.80;99006.86;226574;1266;22631;-75
2023/08/23 11:16:07;;;;;;;15.10;13.50;;;;;;;28.09;64.90;99008.73;226487;1267;25232;-75
2023/08/23 11:21:10;;;;;;;8.10;7.30;;;;;;;27.83;64.68;99008.55;226553;1272;25297;-76
2023/08/23 11:26:13;;;;;;;9.00;8.10;;;;;;;27.74;64.86;99004.34;226532;1260;22544;-76
2023/08/23 11:31:15;;;;;;;8.70;7.80;;;;;;;27.77;64.94;99006.91;226517;1269;22527;-76
2023/08/23 11:36:18;;;;;;;8.50;7.60;;;;;;;27.87;64.31;99010.02;226717;1272;22526;-76
2023/08/23 11:41:28;;;;;;;9.50;7.90;;;;;;;27.98;63.80;99004.95;226494;1272;22527;-75
2023/08/23 11:46:30;;;;;;;8.20;7.50;;;;;;;28.09;63.38;99004.65;226512;1267;22566;-75
2023/08/23 11:51:40;;;;;;;7.90;7.20;;;;;;;28.19;62.99;99008.15;226477;1272;22640;-76
2023/08/23 11:56:44;;;;;;;8.40;7.60;;;;;;;28.26;62.77;99010.38;226530;1269;22540;-76
2023/08/23 12:01:46;;;;;;;8.90;8.00;;;;;;;28.33;62.57;99008.02;226546;1251;22534;-76
2023/08/23 12:06:48;;;;;;;8.80;7.80;;;;;;;28.40;61.55;99004.80;226620;1255;22557;-76
2023/08/23 12:11:51;;;;;;;8.60;7.80;;;;;;;28.44;61.65;99005.55;226548;1270;22540;-76
2023/08/23 12:16:52;;;;;;;8.40;7.00;;;;;;;28.59;61.11;98997.07;226533;1272;22557;-76
2023/08/23 12:21:55;;;;;;;7.30;6.70;;;;;;;28.78;60.82;98999.98;226502;1270;22981;-76
2023/08/23 12:26:59;;;;;;;6.80;6.20;;;;;;;28.64;60.16;99001.96;226576;1253;24281;-76
2023/08/23 12:32:01;;;;;;;7.40;6.70;;;;;;;28.46;60.27;98992.91;226620;1256;23478;-76
2023/08/23 12:37:03;;;;;;;7.00;6.30;;;;;;;28.54;59.96;98983.66;226541;1253;22548;-76
2023/08/23 12:42:05;;;;;;;7.40;6.70;;;;;;;28.55;59.65;98983.88;226536;1270;22537;-76
2023/08/23 12:47:07;;;;;;;7.20;6.50;;;;;;;28.35;59.34;98978.14;226507;1267;22946;-76
2023/08/23 12:52:11;;;;;;;9.30;7.20;;;;;;;28.18;59.48;98976.96;226562;1267;22528;-74
2023/08/23 12:57:13;;;;;;;8.00;6.50;;;;;;;27.91;58.94;98975.94;226572;1269;22546;-76
2023/08/23 13:02:15;;;;;;;7.40;6.80;;;;;;;27.65;59.21;98976.95;226696;1256;22531;-76
2023/08/23 13:07:17;;;;;;;8.10;7.30;;;;;;;27.65;59.49;98970.86;226468;1273;22548;-74
2023/08/23 13:12:19;;;;;;;6.80;6.10;;;;;;;27.73;58.97;98964.02;226637;1267;22578;-77
2023/08/23 13:17:21;;;;;;;7.40;6.70;;;;;;;27.77;58.67;98963.14;226669;1272;22529;-77
2023/08/23 13:22:23;;;;;;;6.90;6.30;;;;;;;27.89;58.72;98950.07;226744;1263;22533;-76
2023/08/23 13:27:26;;;;;;;7.20;6.40;;;;;;;28.02;58.65;98950.55;226354;1257;22577;-76
2023/08/23 13:32:29;;;;;;;7.50;6.80;;;;;;;27.84;58.58;98948.40;226775;1269;24208;-77
2023/08/23 13:37:34;;;;;;;6.70;6.10;;;;;;;27.57;58.08;98945.13;226372;1267;152950;-78
2023/08/23 13:42:37;;;;;;;6.80;6.30;;;;;;;27.26;57.87;98952.31;226634;1268;22532;-78
2023/08/23 13:47:41;;;;;;;7.00;6.30;;;;;;;27.17;58.43;98947.27;226457;1259;22531;-76
2023/08/23 13:52:44;;;;;;;8.00;6.60;;;;;;;27.29;58.49;98945.31;226616;1272;22534;-82
2023/08/23 13:57:46;;;;;;;7.20;6.60;;;;;;;27.47;58.43;98944.78;226649;1267;22896;-75
2023/08/23 14:02:48;;;;;;;7.20;6.20;;;;;;;27.65;58.59;98940.79;226481;1254;25398;-75
2023/08/23 14:07:50;;;;;;;7.20;6.50;;;;;;;27.83;58.30;98938.00;226607;1272;22670;-75
2023/08/23 14:12:53;;;;;;;7.00;6.00;;;;;;;27.97;58.35;98943.86;226662;1269;22541;-78
2023/08/23 14:17:55;;;;;;;7.00;6.40;;;;;;;27.94;56.92;98946.13;226812;1272;22951;-75
2023/08/23 14:22:59;;;;;;;6.10;5.50;;;;;;;27.81;56.98;98946.50;226776;1270;22590;-75
2023/08/23 14:28:01;;;;;;;7.10;6.50;;;;;;;27.69;56.79;98946.58;226819;1272;22531;-75
2023/08/23 14:33:04;;;;;;;6.70;6.00;;;;;;;27.64;56.99;98942.52;226865;1272;24231;-75
2023/08/23 14:38:06;;;;;;;6.50;5.90;;;;;;;27.59;57.10;98945.33;226854;1272;22545;-76
2023/08/23 14:43:09;;;;;;;6.60;5.90;;;;;;;27.51;56.97;98942.23;226816;1272;24221;-75
2023/08/23 14:48:11;;;;;;;6.10;5.50;;;;;;;27.41;56.82;98941.78;226894;1272;22538;-75
2023/08/23 14:53:13;;;;;;;6.30;5.70;;;;;;;27.28;57.30;98942.71;226915;1272;22954;-76
2023/08/23 14:58:15;;;;;;;6.00;5.50;;;;;;;27.24;57.11;98942.61;226755;1272;22538;-76
2023/08/23 15:03:17;;;;;;;5.90;5.40;;;;;;;27.22;57.35;98940.63;226830;1270;24199;-75
2023/08/23 15:08:19;;;;;;;5.50;5.10;;;;;;;27.18;57.16;98943.34;226823;1273;22534;-76
2023/08/23 15:13:21;;;;;;;5.70;5.10;;;;;;;27.10;56.96;98947.38;226806;1272;22538;-76
2023/08/23 15:18:24;;;;;;;7.30;5.40;;;;;;;27.03;56.85;98945.18;226861;1273;22546;-76
2023/08/23 15:23:26;;;;;;;5.90;5.40;;;;;;;26.98;57.07;98945.95;226926;1272;23002;-76
2023/08/23 15:28:28;;;;;;;5.50;5.00;;;;;;;26.92;57.06;98945.14;226841;1272;22542;-76
2023/08/23 15:33:31;;;;;;;5.70;5.10;;;;;;;26.85;56.94;98947.28;226792;1270;22531;-76
2023/08/23 15:38:33;;;;;;;6.00;5.50;;;;;;;26.76;57.09;98944.52;226811;1272;22538;-76
2023/08/23 15:43:35;;;;;;;7.10;5.20;;;;;;;26.67;57.03;98938.40;226828;1272;24978;-76
2023/08/23 15:48:37;;;;;;;6.50;5.00;;;;;;;26.60;57.36;98939.77;226894;1272;22520;-76
2023/08/23 15:53:39;;;;;;;5.70;5.10;;;;;;;26.59;57.48;98942.16;226931;1273;25375;-75
2023/08/23 15:58:41;;;;;;;6.30;5.30;;;;;;;26.55;57.35;98943.52;226853;1272;22520;-76
2023/08/23 16:03:43;;;;;;;6.00;5.20;;;;;;;26.50;57.15;98940.38;226829;1271;22560;-76
2023/08/23 16:08:45;;;;;;;6.00;5.50;;;;;;;26.41;57.17;98941.13;227011;1272;25991;-77
2023/08/23 16:13:47;;;;;;;5.90;5.30;;;;;;;26.32;57.36;98940.71;226849;1272;22541;-76
2023/08/23 16:18:49;;;;;;;6.60;4.80;;;;;;;26.24;57.28;98945.12;226873;1272;24324;-77
2023/08/23 16:23:51;;;;;;;5.90;5.30;;;;;;;26.15;57.50;98943.95;226860;1272;22560;-77
2023/08/23 16:28:53;;;;;;;5.60;5.00;;;;;;;26.08;57.90;98944.46;226832;1272;25308;-76
2023/08/23 16:33:55;;;;;;;5.50;5.00;;;;;;;25.98;57.91;98940.16;226917;1270;22602;-77
2023/08/23 16:38:57;;;;;;;5.50;5.00;;;;;;;25.88;58.25;98943.27;226908;1257;22546;-76
2023/08/23 16:43:59;;;;;;;6.00;5.40;;;;;;;25.76;58.25;98944.36;226873;1270;22590;-76
2023/08/23 16:49:01;;;;;;;5.00;4.60;;;;;;;25.63;58.39;98952.73;226836;1270;22540;-76
2023/08/23 16:54:03;;;;;;;5.00;4.40;;;;;;;25.50;58.75;98959.23;226921;1251;22557;-76
2023/08/23 16:59:05;;;;;;;4.70;4.20;;;;;;;25.37;58.89;98957.36;226946;1270;22557;-76
2023/08/23 17:04:07;;;;;;;4.80;4.40;;;;;;;25.21;58.96;98952.81;226889;1270;22602;-77
2023/08/23 17:09:09;;;;;;;6.60;4.40;;;;;;;25.04;59.36;98954.79;226868;1270;24231;-76
2023/08/23 17:14:11;;;;;;;5.30;4.80;;;;;;;24.85;59.52;98950.64;226928;1272;22552;-76
2023/08/23 17:19:13;;;;;;;6.60;4.50;;;;;;;24.67;59.93;98950.27;226848;1267;25223;-76
2023/08/23 17:24:15;;;;;;;4.90;4.50;;;;;;;24.48;60.46;98952.38;226818;1267;22547;-76
2023/08/23 17:29:17;;;;;;;4.50;4.20;;;;;;;24.28;61.07;98957.44;226878;1270;22608;-76
2023/08/23 17:34:18;;;;;;;4.40;4.00;;;;;;;24.08;61.41;98962.09;226983;1272;22711;-76
2023/08/23 17:39:20;;;;;;;4.70;4.30;;;;;;;23.88;61.73;98967.65;226905;1272;22537;-76
2023/08/23 17:44:22;;;;;;;5.70;4.10;;;;;;;23.67;62.06;98966.41;226948;1272;22672;-76
2023/08/23 17:49:24;;;;;;;4.10;3.70;;;;;;;23.44;62.28;98977.24;226824;1250;22598;-76
2023/08/23 17:54:26;;;;;;;7.10;4.20;;;;;;;23.23;62.58;98977.77;226864;1254;23378;-76
2023/08/23 17:59:29;;;;;;;3.90;3.50;;;;;;;23.01;62.97;98979.80;226847;1270;22539;-76
2023/08/23 18:04:31;;;;;;;4.00;3.50;;;;;;;22.79;63.37;98987.13;226860;1270;22476;-76
2023/08/23 18:09:33;;;;;;;5.10;3.30;;;;;;;22.59;63.63;98991.86;226876;1272;22931;-76
2023/08/23 18:14:35;;;;;;;5.40;3.30;;;;;;;22.39;63.81;98994.00;226940;1272;22598;-74
2023/08/23 18:19:39;;;;;;;4.10;3.40;;;;;;;22.22;63.87;98995.00;226990;1272;22568;-75
2023/08/23 18:24:41;;;;;;;4.00;3.20;;;;;;;22.04;64.23;99007.89;226905;1272;22533;-75
2023/08/23 18:29:43;;;;;;;5.30;3.00;;;;;;;21.85;64.26;99009.32;226954;1251;25335;-75
2023/08/23 18:34:45;;;;;;;4.70;3.70;;;;;;;21.66;64.30;99009.46;227007;1272;22537;-76
2023/08/23 18:39:47;;;;;;;4.80;3.30;;;;;;;21.50;64.20;99018.50;226896;1269;22557;-76
2023/08/23 18:44:49;;;;;;;5.30;3.90;;;;;;;21.33;64.39;99023.91;226853;1269;22650;-76
2023/08/23 18:49:51;;;;;;;4.50;3.20;;;;;;;21.18;64.54;99027.52;226837;1266;23115;-75
2023/08/23 18:54:53;;;;;;;4.10;3.20;;;;;;;21.03;64.66;99031.48;226842;1270;22521;-75
2023/08/23 18:59:54;;;;;;;4.50;3.80;;;;;;;20.91;64.88;99031.63;226919;1267;22566;-75
2023/08/23 19:04:57;;;;;;;7.00;6.00;;;;;;;20.78;64.88;99031.46;226866;1271;22586;-76
2023/08/23 19:10:00;;;;;;;5.10;4.20;;;;;;;20.68;65.10;99031.33;226942;1270;22526;-76
2023/08/23 19:15:02;;;;;;;4.40;4.00;;;;;;;20.60;64.99;99031.00;227021;1272;22544;-75
2023/08/23 19:20:05;;;;;;;7.70;4.30;;;;;;;20.53;65.28;99026.60;226929;1270;22540;-75
2023/08/23 19:25:07;;;;;;;5.10;3.50;;;;;;;20.45;65.31;99026.42;226781;1272;22948;-74
2023/08/23 19:30:10;;;;;;;4.80;3.70;;;;;;;20.39;65.33;99024.89;226907;1270;23019;-75
2023/08/23 19:35:12;;;;;;;5.10;3.60;;;;;;;20.34;65.44;99026.88;227015;1272;22538;-75
2023/08/23 19:40:14;;;;;;;4.40;3.60;;;;;;;20.29;65.63;99027.27;226807;1270;22565;-76
2023/08/23 19:45:16;;;;;;;5.60;3.40;;;;;;;20.19;66.09;99033.83;226876;1267;25703;-75
2023/08/23 19:50:18;;;;;;;4.40;3.30;;;;;;;20.10;66.19;99038.55;226832;1266;22533;-76
2023/08/23 19:55:22;;;;;;;4.20;3.70;;;;;;;20.01;66.77;99038.63;226870;1270;25209;-76
2023/08/23 20:00:24;;;;;;;5.40;4.10;;;;;;;19.92;66.84;99043.34;226915;1269;22542;-75
2023/08/23 20:05:28;;;;;;;5.20;3.80;;;;;;;19.81;67.32;99040.59;226898;1270;24232;-76
2023/08/23 20:10:31;;;;;;;12.20;11.00;;;;;;;19.73;67.47;99040.00;226850;1267;22562;-75
2023/08/23 20:15:34;;;;;;;7.20;4.90;;;;;;;19.66;67.68;99042.08;227030;1272;22554;-75
2023/08/23 20:20:36;;;;;;;6.00;4.40;;;;;;;19.60;68.19;99046.63;226922;1269;22540;-75
2023/08/23 20:25:38;;;;;;;6.00;4.40;;;;;;;19.53;68.57;99048.48;226943;1256;22594;-75
2023/08/23 20:30:41;;;;;;;6.60;4.50;;;;;;;19.47;68.94;99046.39;226930;1269;24386;-75
2023/08/23 20:35:45;;;;;;;6.30;4.70;;;;;;;19.43;69.30;99040.27;226902;1270;22537;-76
2023/08/23 20:40:49;;;;;;;8.50;4.80;;;;;;;19.38;69.58;99040.08;226832;1266;22909;-76
2023/08/23 20:46:00;;;;;;;5.40;4.30;;;;;;;19.34;69.86;99036.77;226900;1269;22585;-76
2023/08/23 20:51:03;;;;;;;6.00;4.50;;;;;;;19.30;70.27;99036.69;226956;1265;22556;-76
2023/08/23 20:56:05;;;;;;;4.80;4.10;;;;;;;19.26;69.99;99029.23;226901;1269;22615;-75
2023/08/23 21:01:06;;;;;;;5.10;3.90;;;;;;;19.22;70.23;99034.88;227008;1267;22561;-76
2023/08/23 21:06:09;;;;;;;7.20;4.50;;;;;;;19.15;70.66;99037.20;226856;1266;25333;-76
2023/08/23 21:11:14;;;;;;;5.50;4.80;;;;;;;19.07;71.08;99035.21;226967;1273;22540;-76
2023/08/23 21:16:16;;;;;;;5.40;4.40;;;;;;;18.98;71.34;99034.45;227058;1272;22524;-75
2023/08/23 21:21:18;;;;;;;5.80;4.70;;;;;;;18.89;71.73;99034.20;226838;1270;22529;-75
2023/08/23 21:26:21;;;;;;;5.90;5.00;;;;;;;18.80;72.10;99038.07;226860;1269;23418;-74
2023/08/23 21:31:23;;;;;;;8.00;5.90;;;;;;;18.71;72.57;99034.64;226892;1267;22565;-75
2023/08/23 21:36:25;;;;;;;9.30;5.90;;;;;;;18.60;73.38;99036.17;226916;1270;22553;-75
2023/08/23 21:41:28;;;;;;;6.00;5.00;;;;;;;18.50;73.69;99040.64;226862;1272;22537;-75
2023/08/23 21:46:32;;;;;;;5.10;4.60;;;;;;;18.40;73.98;99043.44;226903;1266;23209;-75
2023/08/23 21:51:34;;;;;;;5.70;5.20;;;;;;;18.25;74.12;99039.57;226952;1272;24265;-76
2023/08/23 21:56:38;;;;;;;6.80;5.70;;;;;;;18.12;74.74;99046.08;226894;1266;22556;-76
2023/08/23 22:01:40;;;;;;;8.80;7.20;;;;;;;17.99;75.31;99050.14;226841;1267;22523;-75
2023/08/23 22:06:42;;;;;;;10.30;7.80;;;;;;;17.89;75.71;99052.64;226880;1270;22590;-76
2023/08/23 22:11:44;;;;;;;10.20;7.70;;;;;;;17.82;76.13;99058.09;226882;1269;23015;-75
2023/08/23 22:16:46;;;;;;;8.50;7.20;;;;;;;17.75;76.71;99057.87;226999;1272;22540;-75
2023/08/23 22:21:48;;;;;;;8.40;7.40;;;;;;;17.66;76.86;99058.23;226856;1270;22526;-76
2023/08/23 22:26:50;;;;;;;7.50;6.80;;;;;;;17.57;77.09;99060.79;226895;1266;25358;-75
2023/08/23 22:31:53;;;;;;;8.80;7.60;;;;;;;17.48;77.70;99056.31;226953;1272;22652;-75
2023/08/23 22:36:55;;;;;;;10.00;7.90;;;;;;;17.38;78.04;99053.48;226951;1270;22586;-75
2023/08/23 22:41:57;;;;;;;8.80;7.80;;;;;;;17.29;78.14;99051.78;226911;1270;22675;-76
2023/08/23 22:46:59;;;;;;;9.60;8.60;;;;;;;17.21;78.26;99042.59;226917;1272;22529;-75
2023/08/23 22:52:01;;;;;;;9.80;8.80;;;;;;;17.15;78.78;99040.16;226879;1266;22533;-75
2023/08/23 22:57:03;;;;;;;11.00;9.70;;;;;;;17.07;79.28;99038.54;226847;1266;25258;-76
2023/08/23 23:02:05;;;;;;;11.10;8.80;;;;;;;16.99;79.45;99035.43;226878;1270;22537;-75
2023/08/23 23:07:07;;;;;;;8.70;7.60;;;;;;;16.92;79.57;99032.14;226961;1272;22531;-75
2023/08/23 23:12:10;;;;;;;7.90;7.20;;;;;;;16.83;79.75;99031.09;226773;1272;22535;-75